PILOTS ONLINE: 205    ATC ONLINE: 17

KBLH

Blythe Airport

Location

IATA BLH
City Blythe
Country  United States
Latitude 33° 37' 9" N
Longitude 114° 43' 1" W
Elevation 399 ft
Type Medium Airport

Map

Weather

METAR
2014/08/22 06:52
KBLH 220652Z AUTO 13003KT 10SM CLR 22/19 A2994 RMK AO2 SLP133 T02170194
TAF
2014/08/22 06:21
TAF KBLH 220520Z 2206/2306 VRB04KT P6SM SCT100 BKN150 
     FM221500 19008KT P6SM FEW200

Runways

08/26 6543 ft / 150 ft
17/35 5800 ft / 100 ft

Outbound flights

Callsign Flying to Pilot ATD/STD ETA Aircraft

Inbound flights

Callsign Flying from Pilot ATD ETA Aircraft